createdAt,value
2018-10-07T00:01:42.935Z,88.03
2018-10-07T00:04:11.186Z,88.23
2018-10-07T00:06:39.455Z,88.23
2018-10-07T00:09:08.415Z,88.04
2018-10-07T00:11:36.874Z,87.39
2018-10-07T00:14:05.166Z,88.34
2018-10-07T00:16:33.416Z,88.11
2018-10-07T00:19:01.688Z,87.70
2018-10-07T00:21:29.940Z,87.88
2018-10-07T00:23:58.750Z,87.78
2018-10-07T00:26:27.024Z,87.51
2018-10-07T00:28:55.380Z,87.87
2018-10-07T00:31:23.643Z,88.37
2018-10-07T00:33:51.905Z,88.28
2018-10-07T00:36:20.149Z,88.59
2018-10-07T00:38:48.391Z,87.74
2018-10-07T00:41:16.655Z,87.81
2018-10-07T00:43:44.906Z,88.15
2018-10-07T00:46:13.151Z,87.72
2018-10-07T00:48:41.506Z,87.94
2018-10-07T00:51:09.789Z,87.66
2018-10-07T00:53:38.087Z,87.96
2018-10-07T00:56:06.360Z,88.32
2018-10-07T00:58:34.642Z,87.78
2018-10-07T01:01:02.916Z,87.78
2018-10-07T01:03:31.167Z,87.62
2018-10-07T01:05:59.491Z,86.67
2018-10-07T01:08:27.735Z,87.42
2018-10-07T01:10:55.982Z,87.29
2018-10-07T01:13:24.212Z,87.01
2018-10-07T01:15:52.521Z,87.33
2018-10-07T01:18:20.759Z,86.78
2018-10-07T01:20:49.050Z,87.11
2018-10-07T01:23:17.686Z,86.81
2018-10-07T01:25:45.973Z,86.37
2018-10-07T01:28:14.243Z,86.76
2018-10-07T01:30:42.486Z,86.61
2018-10-07T01:33:10.791Z,86.20
2018-10-07T01:35:39.085Z,86.46
2018-10-07T01:38:07.356Z,86.31
2018-10-07T01:40:35.694Z,86.98
2018-10-07T01:43:03.952Z,86.23
2018-10-07T01:45:32.268Z,86.15
2018-10-07T01:48:00.568Z,86.75
2018-10-07T01:50:28.844Z,86.08
2018-10-07T01:52:57.092Z,85.91
2018-10-07T01:55:25.353Z,86.42
2018-10-07T01:57:53.640Z,86.41
2018-10-07T02:00:21.922Z,86.39
2018-10-07T02:02:50.203Z,85.99
2018-10-07T02:05:18.482Z,85.57
2018-10-07T02:07:46.772Z,86.42
2018-10-07T02:10:15.139Z,86.71
2018-10-07T02:12:43.423Z,86.40
2018-10-07T02:15:11.692Z,86.48
2018-10-07T02:17:39.961Z,86.26
2018-10-07T02:20:08.232Z,86.41
2018-10-07T02:22:36.480Z,85.89
2018-10-07T02:25:04.739Z,86.27
2018-10-07T02:27:32.988Z,86.15
2018-10-07T02:30:01.301Z,86.07
2018-10-07T02:32:29.533Z,85.76
2018-10-07T02:34:57.814Z,85.55
2018-10-07T02:37:26.069Z,85.54
2018-10-07T02:39:54.334Z,85.18
2018-10-07T02:42:22.588Z,85.75
2018-10-07T02:44:50.840Z,85.58
2018-10-07T02:47:19.099Z,85.23
2018-10-07T02:49:47.393Z,85.43
2018-10-07T02:52:19.840Z,85.24
2018-10-07T02:54:48.120Z,85.71
2018-10-07T02:57:16.352Z,85.49
2018-10-07T02:59:44.646Z,85.74
2018-10-07T03:02:12.935Z,86.06
2018-10-07T03:04:41.383Z,86.11
2018-10-07T03:07:09.600Z,85.20
2018-10-07T03:09:37.886Z,85.32
2018-10-07T03:12:06.256Z,85.83
2018-10-07T03:14:34.536Z,85.26
2018-10-07T03:17:03.586Z,84.89
2018-10-07T03:19:31.877Z,85.10
2018-10-07T03:22:00.165Z,85.91
2018-10-07T03:24:28.497Z,85.91
2018-10-07T03:26:56.754Z,85.82
2018-10-07T03:29:25.047Z,85.75
2018-10-07T03:31:53.339Z,86.47
2018-10-07T03:34:21.631Z,86.56
2018-10-07T03:36:50.026Z,87.19
2018-10-07T03:39:18.281Z,87.06
2018-10-07T03:41:46.554Z,87.50
2018-10-07T03:44:14.806Z,88.12
2018-10-07T03:46:43.108Z,89.38
2018-10-07T03:49:11.404Z,90.13
2018-10-07T03:51:39.656Z,90.06
2018-10-07T03:54:07.907Z,90.50
2018-10-07T03:56:36.151Z,90.85
2018-10-07T03:59:04.388Z,90.92
2018-10-07T04:01:32.692Z,91.26
2018-10-07T04:04:01.009Z,91.20
2018-10-07T04:06:29.256Z,90.83
2018-10-07T04:08:57.525Z,91.29
2018-10-07T04:11:25.779Z,91.78
2018-10-07T04:13:54.102Z,92.00
2018-10-07T04:16:22.364Z,91.49
2018-10-07T04:18:50.622Z,91.88
2018-10-07T04:21:18.919Z,91.36
2018-10-07T04:23:47.168Z,92.10
2018-10-07T04:26:15.462Z,91.66
2018-10-07T04:28:43.757Z,91.41
2018-10-07T04:31:12.051Z,91.79
2018-10-07T04:33:40.316Z,91.46
2018-10-07T04:36:08.709Z,90.35
2018-10-07T04:38:36.945Z,91.03
2018-10-07T04:41:05.185Z,89.98
2018-10-07T04:43:33.423Z,89.63
2018-10-07T04:46:01.704Z,89.53
2018-10-07T04:48:29.976Z,88.89
2018-10-07T04:50:58.259Z,88.61
2018-10-07T04:53:26.723Z,88.57
2018-10-07T04:55:55.026Z,87.36
2018-10-07T04:58:24.481Z,88.47
2018-10-07T05:00:52.981Z,88.26
2018-10-07T05:03:21.342Z,87.36
2018-10-07T05:05:50.366Z,87.68
2018-10-07T05:08:18.634Z,86.75
2018-10-07T05:10:51.256Z,87.06
2018-10-07T05:13:28.560Z,86.28
2018-10-07T05:15:59.038Z,85.77
2018-10-07T05:18:27.368Z,85.93
2018-10-07T05:20:55.954Z,86.35
2018-10-07T05:23:24.210Z,85.87
2018-10-07T05:25:52.468Z,86.10
2018-10-07T05:28:20.754Z,85.63
2018-10-07T05:30:49.023Z,86.09
2018-10-07T05:33:17.348Z,86.73
2018-10-07T05:35:45.611Z,86.90
2018-10-07T05:38:13.888Z,86.47
2018-10-07T05:40:42.171Z,85.69
2018-10-07T05:43:10.516Z,85.53
2018-10-07T05:45:38.764Z,85.63
2018-10-07T05:48:07.056Z,86.02
2018-10-07T05:50:35.358Z,85.28
2018-10-07T05:53:03.622Z,85.40
2018-10-07T05:55:31.887Z,84.93
2018-10-07T05:58:01.729Z,85.08
2018-10-07T06:00:30.871Z,84.64
2018-10-07T06:03:13.219Z,85.24
2018-10-07T06:05:41.751Z,84.40
2018-10-07T06:08:10.264Z,84.02
2018-10-07T06:10:38.528Z,84.54
2018-10-07T06:13:06.804Z,83.82
2018-10-07T06:15:36.298Z,83.97
2018-10-07T06:18:04.603Z,84.35
2018-10-07T06:20:32.898Z,84.51
2018-10-07T06:23:01.157Z,84.01
2018-10-07T06:25:29.428Z,84.41
2018-10-07T06:27:57.984Z,83.79
2018-10-07T06:30:26.269Z,83.42
2018-10-07T06:32:54.750Z,83.06
2018-10-07T06:35:23.976Z,82.46
2018-10-07T06:37:52.723Z,83.02
2018-10-07T06:40:21.322Z,82.50
2018-10-07T06:42:49.564Z,82.48
2018-10-07T06:45:17.888Z,82.56
2018-10-07T06:47:46.304Z,82.43
2018-10-07T06:50:14.666Z,82.11
2018-10-07T06:52:42.992Z,81.64
2018-10-07T06:55:11.276Z,82.20
2018-10-07T06:57:39.566Z,81.05
2018-10-07T07:00:08.660Z,80.97
2018-10-07T07:02:36.923Z,81.14
2018-10-07T07:05:05.490Z,80.92
2018-10-07T07:07:33.833Z,78.34
2018-10-07T07:10:02.118Z,78.11
2018-10-07T07:12:30.386Z,78.26
2018-10-07T07:14:58.644Z,77.30
2018-10-07T07:17:26.908Z,77.56
2018-10-07T07:19:55.248Z,78.22
2018-10-07T07:22:23.476Z,76.57
2018-10-07T07:24:51.734Z,77.06
2018-10-07T07:27:19.999Z,76.92
2018-10-07T07:29:48.306Z,76.88
2018-10-07T07:32:16.570Z,76.69
2018-10-07T07:34:44.816Z,75.65
2018-10-07T07:37:13.115Z,76.75
2018-10-07T07:39:41.368Z,75.75
2018-10-07T07:42:09.680Z,75.54
2018-10-07T07:44:37.934Z,74.96
2018-10-07T07:47:06.375Z,74.52
2018-10-07T07:49:34.658Z,73.67
2018-10-07T07:52:02.923Z,72.77
2018-10-07T07:54:31.195Z,72.87
2018-10-07T07:56:59.457Z,73.44
2018-10-07T07:59:27.735Z,72.65
2018-10-07T08:01:55.992Z,71.36
2018-10-07T08:04:24.279Z,70.92
2018-10-07T08:06:52.527Z,71.19
2018-10-07T08:09:20.754Z,71.06
2018-10-07T08:11:49.018Z,71.46
2018-10-07T08:14:17.312Z,72.54
2018-10-07T08:16:45.610Z,72.72
2018-10-07T08:19:13.876Z,72.22
2018-10-07T08:21:42.124Z,71.91
2018-10-07T08:24:10.408Z,72.06
2018-10-07T08:26:38.687Z,71.54
2018-10-07T08:29:07.032Z,71.88
2018-10-07T08:31:35.278Z,72.05
2018-10-07T08:34:03.546Z,71.37
2018-10-07T08:36:31.849Z,71.17
2018-10-07T08:39:00.056Z,70.72
2018-10-07T08:41:28.348Z,70.12
2018-10-07T08:43:56.593Z,69.07
2018-10-07T08:46:24.829Z,68.01
2018-10-07T08:48:53.110Z,68.01
2018-10-07T08:51:21.350Z,67.15
2018-10-07T08:53:49.591Z,66.23
2018-10-07T08:56:17.887Z,67.36
2018-10-07T08:58:46.084Z,67.80
2018-10-07T09:01:14.364Z,67.16
2018-10-07T09:03:42.622Z,67.25
2018-10-07T09:06:10.864Z,67.77
2018-10-07T09:08:39.216Z,66.11
2018-10-07T09:11:07.503Z,65.11
2018-10-07T09:13:35.748Z,64.92
2018-10-07T09:16:04.763Z,65.88
2018-10-07T09:18:33.042Z,65.18
2018-10-07T09:21:01.388Z,65.87
2018-10-07T09:23:29.694Z,64.43
2018-10-07T09:25:57.920Z,63.77
2018-10-07T09:28:26.190Z,63.16
2018-10-07T09:30:54.620Z,63.57
2018-10-07T09:33:22.911Z,62.56
2018-10-07T09:35:51.144Z,62.57
2018-10-07T09:38:19.378Z,62.73
2018-10-07T09:40:47.629Z,61.78
2018-10-07T09:43:15.922Z,61.60
2018-10-07T09:45:44.213Z,61.90
2018-10-07T09:48:12.482Z,61.84
2018-10-07T09:50:40.704Z,61.70
2018-10-07T09:53:08.980Z,61.81
2018-10-07T09:55:37.204Z,61.46
2018-10-07T09:58:05.541Z,61.92
2018-10-07T10:00:40.391Z,61.49
2018-10-07T10:03:09.764Z,60.87
2018-10-07T10:05:38.058Z,60.99
2018-10-07T10:08:06.630Z,61.70
2018-10-07T10:10:34.876Z,61.36
2018-10-07T10:13:03.133Z,62.17
2018-10-07T10:15:31.412Z,61.43
2018-10-07T10:18:02.723Z,62.19
2018-10-07T10:21:44.173Z,61.29
2018-10-07T10:26:25.045Z,61.04
2018-10-07T10:29:04.689Z,61.40
2018-10-07T10:31:44.446Z,61.09
2018-10-07T10:34:23.575Z,60.94
2018-10-07T10:37:05.657Z,60.62
2018-10-07T10:40:10.657Z,59.02
2018-10-07T10:42:55.353Z,59.05
2018-10-07T10:45:32.874Z,59.16
2018-10-07T10:48:23.759Z,58.64
2018-10-07T10:50:58.885Z,58.71
2018-10-07T10:53:41.468Z,57.46
2018-10-07T10:56:26.431Z,57.30
2018-10-07T10:59:26.653Z,58.07
2018-10-07T11:02:14.312Z,57.84
2018-10-07T11:04:52.872Z,57.94
2018-10-07T11:07:24.714Z,56.93
2018-10-07T11:12:04.548Z,57.49
2018-10-07T11:14:43.938Z,57.08
2018-10-07T11:19:28.317Z,56.01
2018-10-07T11:22:07.302Z,55.38
2018-10-07T11:24:43.831Z,55.02
2018-10-07T11:28:22.683Z,55.00
2018-10-07T11:31:07.182Z,54.83
2018-10-07T11:34:45.549Z,55.42
2018-10-07T11:37:36.368Z,55.00
2018-10-07T11:40:14.316Z,54.54
2018-10-07T11:42:47.114Z,54.74
2018-10-07T11:45:19.144Z,54.54
2018-10-07T11:48:02.077Z,54.60
2018-10-07T11:50:57.938Z,55.02
2018-10-07T11:53:31.610Z,54.81
2018-10-07T11:55:59.827Z,55.21
2018-10-07T11:58:28.995Z,55.33
2018-10-07T12:00:57.310Z,55.13
2018-10-07T12:03:25.626Z,55.41
2018-10-07T12:05:53.922Z,54.37
2018-10-07T12:08:22.402Z,55.23
2018-10-07T12:10:50.692Z,54.43
2018-10-07T12:13:18.939Z,54.26
2018-10-07T12:15:47.544Z,54.39
2018-10-07T12:18:15.786Z,54.50
2018-10-07T12:20:44.056Z,54.06
2018-10-07T12:23:12.322Z,53.77
2018-10-07T12:25:40.950Z,54.11
2018-10-07T12:28:09.524Z,54.19
2018-10-07T12:30:37.884Z,54.70
2018-10-07T12:33:06.476Z,54.86
2018-10-07T12:35:34.765Z,54.33
2018-10-07T12:38:03.080Z,54.30
2018-10-07T12:40:31.541Z,53.87
2018-10-07T12:42:59.864Z,53.93
2018-10-07T12:45:28.150Z,53.56
2018-10-07T12:47:56.404Z,53.21
2018-10-07T12:50:24.675Z,52.63
2018-10-07T12:52:53.760Z,53.26
2018-10-07T12:55:22.100Z,52.70
2018-10-07T12:57:50.387Z,52.75
2018-10-07T13:00:18.683Z,51.77
2018-10-07T13:02:46.935Z,51.11
2018-10-07T13:05:15.222Z,51.58
2018-10-07T13:07:43.483Z,52.38
2018-10-07T13:10:11.851Z,52.00
2018-10-07T13:12:40.116Z,51.86
2018-10-07T13:15:08.424Z,52.32
2018-10-07T13:17:36.758Z,52.30
2018-10-07T13:20:05.290Z,51.92
2018-10-07T13:22:33.716Z,51.18
2018-10-07T13:25:02.042Z,51.55
2018-10-07T13:27:30.521Z,52.06
2018-10-07T13:29:58.780Z,50.59
2018-10-07T13:32:27.181Z,50.41
2018-10-07T13:34:55.416Z,50.66
2018-10-07T13:37:23.803Z,51.55
2018-10-07T13:39:52.086Z,50.34
2018-10-07T13:42:20.347Z,51.03
2018-10-07T13:44:48.622Z,50.92
2018-10-07T13:47:16.935Z,50.81
2018-10-07T13:49:45.234Z,50.66
2018-10-07T13:52:13.536Z,50.71
2018-10-07T13:54:41.794Z,50.32
2018-10-07T13:57:10.088Z,50.18
2018-10-07T13:59:38.353Z,50.51
2018-10-07T14:02:06.601Z,50.32
2018-10-07T14:04:34.922Z,49.78
2018-10-07T14:07:03.160Z,49.80
2018-10-07T14:09:31.411Z,50.17
2018-10-07T14:11:59.661Z,50.03
2018-10-07T14:14:28.013Z,50.30
2018-10-07T14:16:56.287Z,49.61
2018-10-07T14:19:24.558Z,50.39
2018-10-07T14:21:52.807Z,50.17
2018-10-07T14:24:21.068Z,50.48
2018-10-07T14:26:49.332Z,50.45
2018-10-07T14:29:17.587Z,50.54
2018-10-07T14:31:45.823Z,51.16
2018-10-07T14:34:14.092Z,50.45
2018-10-07T14:36:42.384Z,49.93
2018-10-07T14:39:12.339Z,49.86
2018-10-07T14:41:40.551Z,50.52
2018-10-07T14:44:08.828Z,49.65
2018-10-07T14:46:37.175Z,50.38
2018-10-07T14:49:05.427Z,50.69
2018-10-07T14:51:33.692Z,49.33
2018-10-07T14:54:01.952Z,49.74
2018-10-07T14:56:30.203Z,49.63
2018-10-07T14:58:58.456Z,49.26
2018-10-07T15:01:26.742Z,49.97
2018-10-07T15:03:54.971Z,49.99
2018-10-07T15:06:23.235Z,50.10
2018-10-07T15:08:51.491Z,49.81
2018-10-07T15:11:19.792Z,49.63
2018-10-07T15:13:48.186Z,50.11
2018-10-07T15:16:16.511Z,50.18
2018-10-07T15:18:44.750Z,50.49
2018-10-07T15:21:12.987Z,51.06
2018-10-07T15:23:41.237Z,50.09
2018-10-07T15:26:09.442Z,50.87
2018-10-07T15:28:37.804Z,50.72
2018-10-07T15:31:06.043Z,50.92
2018-10-07T15:33:34.330Z,50.79
2018-10-07T15:36:02.617Z,50.57
2018-10-07T15:38:30.898Z,51.03
2018-10-07T15:40:59.128Z,51.05
2018-10-07T15:43:27.432Z,50.73
2018-10-07T15:45:55.812Z,50.98
2018-10-07T15:48:24.172Z,50.95
2018-10-07T15:50:52.438Z,51.25
2018-10-07T15:53:20.699Z,51.36
2018-10-07T15:55:48.964Z,51.91
2018-10-07T15:58:17.526Z,51.31
2018-10-07T16:00:45.814Z,52.53
2018-10-07T16:03:14.076Z,52.41
2018-10-07T16:05:42.419Z,52.17
2018-10-07T16:08:10.796Z,52.10
2018-10-07T16:10:39.073Z,51.91
2018-10-07T16:13:07.325Z,52.79
2018-10-07T16:15:35.602Z,52.71
2018-10-07T16:18:03.892Z,52.44
2018-10-07T16:20:32.159Z,52.97
2018-10-07T16:23:00.479Z,53.18
2018-10-07T16:25:28.764Z,53.15
2018-10-07T16:27:57.024Z,53.26
2018-10-07T16:30:25.351Z,54.12
2018-10-07T16:32:53.610Z,54.68
2018-10-07T16:35:21.929Z,54.39
2018-10-07T16:37:50.242Z,54.60
2018-10-07T16:40:18.508Z,55.12
2018-10-07T16:42:46.790Z,55.11
2018-10-07T16:45:15.135Z,55.76
2018-10-07T16:47:43.410Z,55.73
2018-10-07T16:50:11.664Z,56.14
2018-10-07T16:52:40.243Z,56.25
2018-10-07T16:55:08.522Z,56.07
2018-10-07T16:57:36.802Z,57.23
2018-10-07T17:00:05.080Z,57.22
2018-10-07T17:02:33.344Z,58.48
2018-10-07T17:05:01.602Z,58.29
2018-10-07T17:07:29.880Z,58.18
2018-10-07T17:09:58.131Z,58.36
2018-10-07T17:12:26.383Z,58.71
2018-10-07T17:14:54.669Z,58.73
2018-10-07T17:17:22.956Z,59.50
2018-10-07T17:19:51.334Z,60.37
2018-10-07T17:22:19.581Z,60.62
2018-10-07T17:24:48.145Z,60.98
2018-10-07T17:27:16.676Z,62.05
2018-10-07T17:29:44.889Z,61.48
2018-10-07T17:32:13.162Z,62.67
2018-10-07T17:34:41.409Z,62.60
2018-10-07T17:37:09.632Z,63.08
2018-10-07T17:39:37.909Z,63.63
2018-10-07T17:42:06.159Z,64.93
2018-10-07T17:44:34.434Z,64.89
2018-10-07T17:47:02.702Z,65.19
2018-10-07T17:49:30.960Z,65.42
2018-10-07T17:51:59.207Z,65.95
2018-10-07T17:54:27.469Z,65.23
2018-10-07T17:56:55.794Z,65.03
2018-10-07T17:59:24.047Z,64.69
2018-10-07T18:01:52.401Z,64.54
2018-10-07T18:04:20.680Z,64.83
2018-10-07T18:06:48.982Z,65.24
2018-10-07T18:09:17.284Z,66.41
2018-10-07T18:11:45.512Z,66.83
2018-10-07T18:14:13.770Z,67.42
2018-10-07T18:16:42.047Z,67.04
2018-10-07T18:19:10.301Z,67.07
2018-10-07T18:21:38.643Z,67.41
2018-10-07T18:24:06.907Z,67.20
2018-10-07T18:26:35.269Z,67.25
2018-10-07T18:29:03.598Z,67.08
2018-10-07T18:31:31.900Z,67.20
2018-10-07T18:34:00.206Z,66.83
2018-10-07T18:36:28.460Z,66.91
2018-10-07T18:38:56.763Z,66.95
2018-10-07T18:41:25.035Z,67.73
2018-10-07T18:43:53.355Z,68.35
2018-10-07T18:46:21.637Z,68.45
2018-10-07T18:48:50.005Z,69.14
2018-10-07T18:51:18.213Z,69.37
2018-10-07T18:53:46.510Z,69.34
2018-10-07T18:56:14.787Z,69.54
2018-10-07T18:58:43.260Z,70.00
2018-10-07T19:01:11.523Z,69.59
2018-10-07T19:03:39.769Z,69.31
2018-10-07T19:06:08.194Z,68.77
2018-10-07T19:08:36.571Z,68.73
2018-10-07T19:11:04.811Z,68.22
2018-10-07T19:13:33.132Z,67.97
2018-10-07T19:16:01.563Z,67.85
2018-10-07T19:18:29.852Z,67.66
2018-10-07T19:20:58.241Z,67.78
2018-10-07T19:23:26.458Z,68.47
2018-10-07T19:25:54.714Z,68.74
2018-10-07T19:28:22.952Z,68.83
2018-10-07T19:30:51.255Z,69.58
2018-10-07T19:33:19.543Z,69.24
2018-10-07T19:35:47.786Z,69.90
2018-10-07T19:38:16.083Z,70.10
2018-10-07T19:40:44.359Z,71.01
2018-10-07T19:43:12.651Z,70.80
2018-10-07T19:45:40.952Z,70.86
2018-10-07T19:48:09.215Z,71.16
2018-10-07T19:50:37.464Z,71.57
2018-10-07T19:53:06.162Z,70.95
2018-10-07T19:55:34.415Z,71.38
2018-10-07T19:58:02.693Z,71.35
2018-10-07T20:00:30.952Z,72.05
2018-10-07T20:02:59.231Z,71.93
2018-10-07T20:05:27.516Z,72.35
2018-10-07T20:07:55.801Z,73.40
2018-10-07T20:10:24.081Z,73.27
2018-10-07T20:12:52.318Z,72.98
2018-10-07T20:15:20.585Z,73.04
2018-10-07T20:17:48.821Z,73.66
2018-10-07T20:20:17.111Z,73.60
2018-10-07T20:22:45.403Z,73.31
2018-10-07T20:25:13.683Z,73.56
2018-10-07T20:27:41.924Z,74.03
2018-10-07T20:30:10.175Z,74.15
2018-10-07T20:32:38.473Z,74.90
2018-10-07T20:35:06.804Z,75.07
2018-10-07T20:37:35.072Z,74.66
2018-10-07T20:40:03.316Z,75.19
2018-10-07T20:42:31.564Z,75.11
2018-10-07T20:44:59.862Z,74.96
2018-10-07T20:47:28.150Z,75.29
2018-10-07T20:49:56.407Z,75.70
2018-10-07T20:52:24.740Z,75.91
2018-10-07T20:54:53.006Z,75.83
2018-10-07T20:57:21.276Z,76.08
2018-10-07T20:59:49.604Z,76.25
2018-10-07T21:02:17.855Z,75.83
2018-10-07T21:04:46.085Z,76.00
2018-10-07T21:07:14.340Z,76.30
2018-10-07T21:09:42.632Z,76.78
2018-10-07T21:12:10.866Z,76.44
2018-10-07T21:14:39.150Z,77.15
2018-10-07T21:17:07.467Z,76.49
2018-10-07T21:19:35.714Z,76.56
2018-10-07T21:22:03.998Z,76.89
2018-10-07T21:24:32.254Z,77.39
2018-10-07T21:27:00.565Z,76.90
2018-10-07T21:29:29.003Z,77.51
2018-10-07T21:31:57.106Z,77.29
2018-10-07T21:34:25.393Z,77.38
2018-10-07T21:36:53.641Z,77.96
2018-10-07T21:39:21.851Z,77.47
2018-10-07T21:41:50.166Z,77.69
2018-10-07T21:44:18.517Z,77.79
2018-10-07T21:46:46.826Z,78.12
2018-10-07T21:49:15.076Z,77.81
2018-10-07T21:51:43.311Z,78.38
2018-10-07T21:54:11.592Z,77.90
2018-10-07T21:56:39.865Z,77.91
2018-10-07T21:59:08.124Z,78.01
2018-10-07T22:01:36.379Z,78.24
2018-10-07T22:04:04.892Z,78.60
2018-10-07T22:06:33.158Z,78.05
2018-10-07T22:09:01.430Z,78.52
2018-10-07T22:11:29.713Z,78.72
2018-10-07T22:13:57.993Z,78.01
2018-10-07T22:16:26.240Z,78.56
2018-10-07T22:18:54.537Z,78.13
2018-10-07T22:21:22.860Z,77.83
2018-10-07T22:23:51.121Z,78.62
2018-10-07T22:26:19.371Z,78.57
2018-10-07T22:28:47.621Z,78.15
2018-10-07T22:31:15.892Z,79.05
2018-10-07T22:33:44.186Z,78.46
2018-10-07T22:36:12.458Z,78.90
2018-10-07T22:38:40.712Z,78.75
2018-10-07T22:41:09.342Z,79.32
2018-10-07T22:43:37.560Z,79.16
2018-10-07T22:46:05.815Z,78.86
2018-10-07T22:48:34.084Z,79.48
2018-10-07T22:51:02.356Z,79.20
2018-10-07T22:53:30.608Z,79.62
2018-10-07T22:55:58.852Z,79.88
2018-10-07T22:58:27.114Z,79.53
2018-10-07T23:00:55.382Z,80.00
2018-10-07T23:03:23.637Z,79.63
2018-10-07T23:05:51.896Z,80.02
2018-10-07T23:08:20.165Z,79.55
2018-10-07T23:10:48.871Z,79.90
2018-10-07T23:13:17.153Z,79.91
2018-10-07T23:15:45.418Z,80.04
2018-10-07T23:18:13.683Z,80.42
2018-10-07T23:20:41.950Z,80.23
2018-10-07T23:23:10.226Z,80.36
2018-10-07T23:25:38.489Z,79.97
2018-10-07T23:28:06.798Z,80.68
2018-10-07T23:30:35.050Z,80.03
2018-10-07T23:33:03.260Z,80.06
2018-10-07T23:35:31.494Z,80.36
2018-10-07T23:38:02.810Z,80.12
2018-10-07T23:40:31.147Z,80.87
2018-10-07T23:42:59.396Z,80.35
2018-10-07T23:45:27.706Z,80.43
2018-10-07T23:47:55.986Z,80.63
2018-10-07T23:50:24.229Z,80.92
2018-10-07T23:52:52.506Z,80.31
2018-10-07T23:55:20.770Z,80.56
2018-10-07T23:57:49.021Z,80.90
